createdAt,value
2019-01-31T00:00:21.313Z,72.94
2019-01-31T00:01:21.300Z,72.94
2019-01-31T00:02:21.245Z,73.14
2019-01-31T00:03:21.182Z,73.62
2019-01-31T00:04:21.150Z,73.62
2019-01-31T00:05:21.105Z,74.21
2019-01-31T00:06:21.071Z,73.52
2019-01-31T00:07:21.020Z,73.72
2019-01-31T00:08:20.975Z,73.24
2019-01-31T00:09:20.932Z,74.11
2019-01-31T00:10:20.908Z,73.72
2019-01-31T00:11:20.853Z,74.07
2019-01-31T00:12:20.809Z,74.27
2019-01-31T00:13:20.757Z,74.37
2019-01-31T00:14:20.733Z,74.56
2019-01-31T00:15:20.673Z,75.53
2019-01-31T00:16:20.635Z,75.34
2019-01-31T00:17:20.582Z,75.49
2019-01-31T00:18:20.538Z,75.98
2019-01-31T00:19:20.515Z,76.27
2019-01-31T00:20:20.440Z,76.27
2019-01-31T00:21:20.410Z,75.88
2019-01-31T00:22:20.365Z,75.92
2019-01-31T00:23:20.329Z,75.62
2019-01-31T00:24:20.285Z,76.01
2019-01-31T00:25:20.241Z,76.27
2019-01-31T00:26:20.198Z,76.11
2019-01-31T00:27:20.165Z,75.78
2019-01-31T00:28:20.122Z,75.62
2019-01-31T00:29:20.078Z,75.34
2019-01-31T00:30:20.091Z,75.72
2019-01-31T00:31:19.979Z,75.53
2019-01-31T00:32:19.926Z,75.14
2019-01-31T00:33:19.872Z,75.10
2019-01-31T00:34:19.847Z,75.62
2019-01-31T00:35:19.817Z,75.62
2019-01-31T00:36:19.751Z,75.82
2019-01-31T00:37:19.710Z,75.72
2019-01-31T00:38:19.663Z,75.53
2019-01-31T00:39:19.619Z,75.72
2019-01-31T00:40:19.585Z,76.46
2019-01-31T00:41:19.520Z,76.01
2019-01-31T00:42:19.506Z,76.89
2019-01-31T00:43:19.464Z,76.85
2019-01-31T00:44:19.421Z,76.65
2019-01-31T00:45:19.356Z,76.95
2019-01-31T00:46:19.321Z,77.14
2019-01-31T00:47:19.269Z,77.92
2019-01-31T00:48:19.225Z,77.53
2019-01-31T00:49:19.190Z,76.65
2019-01-31T00:50:19.127Z,76.85
2019-01-31T00:51:19.093Z,76.65
2019-01-31T00:52:19.058Z,76.95
2019-01-31T00:53:18.994Z,77.53
2019-01-31T00:54:18.963Z,77.82
2019-01-31T00:55:18.918Z,77.92
2019-01-31T00:56:18.883Z,78.31
2019-01-31T00:57:18.879Z,78.21
2019-01-31T00:58:18.807Z,78.40
2019-01-31T00:59:18.742Z,78.11
2019-01-31T01:00:18.687Z,77.62
2019-01-31T01:01:18.664Z,76.65
2019-01-31T01:02:18.619Z,77.43
2019-01-31T01:03:18.555Z,76.56
2019-01-31T01:04:18.532Z,76.65
2019-01-31T01:05:18.499Z,77.24
2019-01-31T01:06:18.444Z,76.85
2019-01-31T01:07:18.400Z,77.34
2019-01-31T01:08:18.338Z,77.72
2019-01-31T01:09:18.313Z,78.99
2019-01-31T01:10:18.260Z,79.28
2019-01-31T01:11:18.204Z,79.96
2019-01-31T01:12:18.183Z,80.15
2019-01-31T01:13:18.129Z,79.37
2019-01-31T01:14:18.072Z,78.99
2019-01-31T01:15:18.029Z,79.37
2019-01-31T01:16:18.055Z,78.75
2019-01-31T01:17:17.952Z,78.79
2019-01-31T01:18:17.920Z,78.11
2019-01-31T01:19:17.885Z,78.31
2019-01-31T01:20:17.829Z,78.27
2019-01-31T01:21:17.778Z,78.31
2019-01-31T01:22:17.721Z,77.98
2019-01-31T01:23:17.688Z,78.59
2019-01-31T01:24:17.644Z,78.31
2019-01-31T01:25:17.611Z,78.69
2019-01-31T01:26:17.577Z,79.08
2019-01-31T01:27:17.512Z,79.08
2019-01-31T01:28:17.492Z,78.99
2019-01-31T01:29:17.445Z,79.18
2019-01-31T01:30:17.389Z,78.89
2019-01-31T01:31:17.324Z,79.63
2019-01-31T01:32:17.301Z,79.82
2019-01-31T01:33:17.248Z,80.69
2019-01-31T01:34:17.213Z,80.79
2019-01-31T01:35:17.350Z,81.08
2019-01-31T01:36:17.129Z,80.79
2019-01-31T01:37:17.072Z,80.69
2019-01-31T01:38:17.037Z,80.69
2019-01-31T01:39:19.366Z,80.21
2019-01-31T01:40:16.943Z,79.91
2019-01-31T01:41:16.884Z,80.21
2019-01-31T01:42:16.874Z,80.01
2019-01-31T01:43:16.816Z,79.82
2019-01-31T01:44:16.763Z,79.82
2019-01-31T01:45:16.709Z,80.30
2019-01-31T01:46:16.675Z,80.50
2019-01-31T01:47:16.652Z,80.40
2019-01-31T01:48:16.576Z,81.08
2019-01-31T01:49:16.534Z,81.04
2019-01-31T01:50:16.499Z,81.23
2019-01-31T01:51:16.464Z,81.13
2019-01-31T01:52:16.431Z,80.88
2019-01-31T01:53:16.366Z,81.08
2019-01-31T01:54:16.323Z,81.08
2019-01-31T01:55:16.287Z,81.95
2019-01-31T01:56:16.222Z,82.50
2019-01-31T01:57:16.178Z,82.10
2019-01-31T01:58:16.156Z,82.40
2019-01-31T01:59:16.090Z,81.82
2019-01-31T02:00:16.078Z,81.91
2019-01-31T02:01:16.002Z,81.04
2019-01-31T02:02:15.957Z,81.04
2019-01-31T02:03:15.925Z,81.13
2019-01-31T02:04:15.901Z,80.85
2019-01-31T02:05:15.838Z,80.50
2019-01-31T02:06:15.813Z,80.40
2019-01-31T02:07:15.768Z,80.36
2019-01-31T02:08:15.726Z,80.98
2019-01-31T02:09:15.648Z,81.08
2019-01-31T02:10:15.616Z,80.30
2019-01-31T02:11:15.593Z,80.55
2019-01-31T02:12:15.536Z,81.23
2019-01-31T02:13:15.483Z,80.85
2019-01-31T02:14:15.459Z,80.94
2019-01-31T02:15:15.384Z,81.23
2019-01-31T02:16:15.359Z,81.04
2019-01-31T02:17:15.297Z,82.20
2019-01-31T02:18:15.264Z,82.40
2019-01-31T02:19:15.219Z,82.88
2019-01-31T02:20:15.162Z,83.07
2019-01-31T02:21:15.130Z,82.59
2019-01-31T02:22:15.106Z,82.78
2019-01-31T02:23:15.063Z,82.10
2019-01-31T02:24:14.985Z,82.50
2019-01-31T02:25:14.962Z,81.82
2019-01-31T02:26:14.909Z,81.04
2019-01-31T02:27:14.873Z,80.75
2019-01-31T02:28:14.832Z,80.36
2019-01-31T02:29:14.796Z,81.04
2019-01-31T02:30:14.721Z,80.94
2019-01-31T02:31:14.699Z,81.13
2019-01-31T02:32:14.652Z,81.82
2019-01-31T02:33:14.608Z,82.10
2019-01-31T02:34:14.564Z,82.20
2019-01-31T02:35:14.565Z,82.75
2019-01-31T02:36:14.486Z,82.88
2019-01-31T02:37:14.422Z,82.17
2019-01-31T02:38:14.400Z,82.50
2019-01-31T02:39:14.343Z,82.26
2019-01-31T02:40:14.277Z,81.72
2019-01-31T02:41:14.277Z,81.72
2019-01-31T02:42:14.201Z,81.33
2019-01-31T02:43:14.144Z,81.91
2019-01-31T02:44:14.121Z,82.50
2019-01-31T02:45:14.077Z,82.10
2019-01-31T02:46:14.023Z,82.20
2019-01-31T02:47:13.978Z,83.13
2019-01-31T02:48:13.934Z,83.42
2019-01-31T02:49:13.878Z,83.91
2019-01-31T02:50:13.846Z,83.52
2019-01-31T02:51:13.802Z,83.91
2019-01-31T02:52:13.757Z,84.10
2019-01-31T02:53:13.713Z,84.20
2019-01-31T02:54:13.656Z,84.10
2019-01-31T02:55:13.624Z,81.68
2019-01-31T02:56:13.602Z,81.58
2019-01-31T02:57:13.536Z,81.77
2019-01-31T02:58:13.514Z,81.58
2019-01-31T02:59:13.435Z,81.77
2019-01-31T03:00:13.390Z,81.87
2019-01-31T03:01:13.379Z,81.87
2019-01-31T03:02:13.313Z,81.87
2019-01-31T03:03:13.272Z,82.07
2019-01-31T03:04:13.245Z,81.58
2019-01-31T03:05:16.083Z,81.20
2019-01-31T03:06:13.346Z,81.10
2019-01-31T03:07:13.080Z,81.10
2019-01-31T03:08:13.036Z,80.80
2019-01-31T03:09:13.003Z,80.80
2019-01-31T03:10:12.950Z,81.10
2019-01-31T03:11:12.923Z,81.87
2019-01-31T03:12:12.894Z,82.26
2019-01-31T03:13:12.942Z,82.84
2019-01-31T03:14:12.800Z,83.52
2019-01-31T03:15:12.746Z,83.52
2019-01-31T03:16:12.681Z,84.20
2019-01-31T03:17:12.652Z,83.81
2019-01-31T03:18:12.612Z,83.96
2019-01-31T03:19:12.547Z,83.96
2019-01-31T03:20:12.525Z,83.86
2019-01-31T03:21:12.480Z,83.96
2019-01-31T03:22:12.430Z,83.86
2019-01-31T03:23:12.390Z,84.25
2019-01-31T03:24:12.336Z,83.28
2019-01-31T03:25:12.312Z,82.90
2019-01-31T03:26:12.249Z,83.67
2019-01-31T03:27:12.192Z,83.38
2019-01-31T03:28:12.160Z,84.06
2019-01-31T03:29:12.114Z,84.06
2019-01-31T03:30:12.079Z,84.93
2019-01-31T03:31:12.035Z,85.13
2019-01-31T03:32:12.010Z,85.71
2019-01-31T03:33:11.946Z,85.71
2019-01-31T03:34:12.066Z,85.51
2019-01-31T03:35:11.847Z,85.13
2019-01-31T03:36:11.824Z,85.31
2019-01-31T03:37:11.780Z,85.80
2019-01-31T03:38:11.722Z,84.83
2019-01-31T03:39:11.674Z,83.67
2019-01-31T03:40:11.627Z,83.09
2019-01-31T03:41:11.580Z,82.80
2019-01-31T03:42:11.558Z,83.00
2019-01-31T03:43:11.479Z,82.41
2019-01-31T03:44:11.435Z,82.51
2019-01-31T03:45:11.603Z,81.64
2019-01-31T03:46:11.380Z,81.83
2019-01-31T03:47:11.322Z,81.93
2019-01-31T03:48:11.277Z,82.12
2019-01-31T03:49:11.232Z,82.03
2019-01-31T03:50:11.171Z,82.41
2019-01-31T03:51:11.155Z,82.32
2019-01-31T03:52:11.090Z,82.22
2019-01-31T03:53:11.066Z,82.90
2019-01-31T03:54:11.001Z,83.38
2019-01-31T03:55:10.947Z,83.86
2019-01-31T03:56:10.901Z,83.86
2019-01-31T03:57:10.888Z,84.83
2019-01-31T03:58:10.832Z,84.35
2019-01-31T03:59:10.788Z,85.13
2019-01-31T04:00:10.722Z,85.08
2019-01-31T04:01:10.698Z,85.03
2019-01-31T04:02:10.665Z,84.55
2019-01-31T04:03:10.605Z,84.60
2019-01-31T04:04:10.545Z,83.92
2019-01-31T04:05:10.521Z,83.77
2019-01-31T04:06:10.454Z,83.38
2019-01-31T04:07:10.431Z,83.38
2019-01-31T04:08:10.387Z,83.28
2019-01-31T04:09:10.342Z,83.28
2019-01-31T04:10:18.692Z,83.58
2019-01-31T04:11:10.265Z,83.38
2019-01-31T04:12:10.187Z,83.92
2019-01-31T04:13:10.142Z,83.73
2019-01-31T04:14:10.109Z,84.69
2019-01-31T04:15:10.280Z,84.69
2019-01-31T04:16:10.029Z,84.41
2019-01-31T04:17:09.984Z,84.21
2019-01-31T04:18:09.920Z,84.41
2019-01-31T04:19:09.874Z,84.79
2019-01-31T04:20:09.862Z,85.18
2019-01-31T04:21:09.806Z,85.28
2019-01-31T04:22:09.752Z,85.28
2019-01-31T04:23:09.728Z,85.37
2019-01-31T04:24:09.651Z,85.76
2019-01-31T04:25:09.632Z,85.66
2019-01-31T04:26:09.562Z,85.37
2019-01-31T04:27:09.530Z,85.28
2019-01-31T04:28:09.484Z,85.66
2019-01-31T04:29:09.440Z,85.76
2019-01-31T04:30:09.415Z,85.80
2019-01-31T04:31:09.338Z,85.61
2019-01-31T04:32:09.314Z,85.37
2019-01-31T04:33:09.260Z,86.24
2019-01-31T04:34:09.224Z,86.44
2019-01-31T04:35:09.173Z,87.02
2019-01-31T04:36:09.147Z,87.50
2019-01-31T04:37:09.071Z,87.99
2019-01-31T04:38:09.046Z,88.37
2019-01-31T04:39:09.013Z,88.67
2019-01-31T04:40:08.937Z,89.05
2019-01-31T04:41:08.903Z,88.71
2019-01-31T04:42:08.879Z,88.53
2019-01-31T04:43:08.835Z,88.95
2019-01-31T04:44:08.778Z,88.53
2019-01-31T04:45:08.726Z,88.43
2019-01-31T04:46:08.700Z,88.53
2019-01-31T04:47:08.624Z,88.23
2019-01-31T04:48:08.590Z,88.43
2019-01-31T04:49:08.545Z,88.71
2019-01-31T04:50:08.500Z,89.01
2019-01-31T04:51:08.480Z,88.91
2019-01-31T04:52:08.401Z,88.91
2019-01-31T04:53:08.355Z,88.81
2019-01-31T04:54:08.312Z,88.43
2019-01-31T04:55:08.265Z,88.57
2019-01-31T04:56:08.241Z,88.37
2019-01-31T04:57:08.178Z,87.99
2019-01-31T04:58:08.163Z,88.28
2019-01-31T04:59:08.087Z,88.28
2019-01-31T05:00:08.041Z,87.31
2019-01-31T05:01:08.019Z,87.31
2019-01-31T05:02:07.952Z,87.89
2019-01-31T05:03:07.940Z,88.28
2019-01-31T05:04:07.933Z,88.85
2019-01-31T05:05:07.826Z,88.81
2019-01-31T05:06:07.822Z,89.49
2019-01-31T05:07:07.739Z,89.29
2019-01-31T05:08:07.715Z,89.20
2019-01-31T05:09:07.659Z,89.69
2019-01-31T05:10:07.606Z,89.97
2019-01-31T05:11:07.581Z,90.46
2019-01-31T05:12:07.517Z,90.36
2019-01-31T05:13:07.491Z,91.24
2019-01-31T05:14:07.426Z,90.84
2019-01-31T05:15:07.374Z,91.04
2019-01-31T05:16:07.357Z,90.84
2019-01-31T05:17:07.280Z,91.04
2019-01-31T05:18:07.238Z,90.94
2019-01-31T05:19:07.191Z,91.24
2019-01-31T05:20:07.172Z,91.04
2019-01-31T05:21:07.100Z,90.75
2019-01-31T05:22:07.068Z,91.42
2019-01-31T05:23:07.012Z,91.42
2019-01-31T05:24:06.988Z,91.33
2019-01-31T05:25:07.125Z,91.42
2019-01-31T05:26:06.897Z,91.33
2019-01-31T05:27:06.865Z,91.33
2019-01-31T05:28:06.788Z,91.42
2019-01-31T05:29:06.743Z,91.24
2019-01-31T05:30:06.717Z,91.24
2019-01-31T05:31:06.652Z,90.75
2019-01-31T05:32:06.639Z,90.99
2019-01-31T05:33:06.584Z,91.24
2019-01-31T05:34:06.521Z,90.84
2019-01-31T05:35:06.484Z,90.07
2019-01-31T05:36:06.460Z,90.36
2019-01-31T05:37:06.388Z,90.56
2019-01-31T05:38:06.361Z,90.36
2019-01-31T05:39:06.418Z,90.94
2019-01-31T05:40:06.268Z,90.99
2019-01-31T05:41:06.203Z,90.94
2019-01-31T05:42:06.160Z,91.04
2019-01-31T05:43:06.076Z,91.24
2019-01-31T05:44:06.101Z,91.14
2019-01-31T05:45:06.035Z,91.14
2019-01-31T05:46:06.011Z,91.24
2019-01-31T05:47:05.935Z,91.42
2019-01-31T05:48:05.901Z,91.33
2019-01-31T05:49:05.866Z,92.00
2019-01-31T05:50:05.812Z,91.72
2019-01-31T05:51:05.775Z,91.91
2019-01-31T05:52:05.713Z,92.49
2019-01-31T05:53:05.700Z,92.49
2019-01-31T05:54:05.623Z,92.40
2019-01-31T05:55:05.607Z,92.49
2019-01-31T05:56:05.551Z,92.97
2019-01-31T05:57:05.499Z,92.83
2019-01-31T05:58:05.461Z,92.68
2019-01-31T05:59:05.901Z,92.54
2019-01-31T06:00:05.362Z,93.41
2019-01-31T06:01:05.329Z,93.41
2019-01-31T06:02:05.263Z,93.51
2019-01-31T06:03:05.248Z,94.28
2019-01-31T06:04:05.204Z,94.09
2019-01-31T06:05:05.128Z,94.48
2019-01-31T06:06:05.114Z,94.38
2019-01-31T06:07:11.164Z,94.86
2019-01-31T06:08:04.992Z,94.48
2019-01-31T06:09:04.946Z,94.76
2019-01-31T06:10:04.913Z,94.76
2019-01-31T06:11:07.550Z,94.76
2019-01-31T06:12:04.826Z,94.67
2019-01-31T06:13:04.798Z,94.48
2019-01-31T06:14:04.733Z,94.18
2019-01-31T06:15:04.688Z,94.67
2019-01-31T06:16:06.761Z,94.38
2019-01-31T06:17:04.587Z,94.57
2019-01-31T06:18:04.541Z,93.90
2019-01-31T06:19:04.508Z,94.28
2019-01-31T06:20:04.472Z,94.48
2019-01-31T06:21:04.427Z,94.48
2019-01-31T06:22:04.385Z,94.76
2019-01-31T06:23:04.328Z,94.96
2019-01-31T06:24:04.303Z,95.06
2019-01-31T06:25:04.240Z,95.54
2019-01-31T06:26:04.214Z,95.83
2019-01-31T06:27:04.137Z,95.25
2019-01-31T06:28:04.091Z,95.25
2019-01-31T06:29:04.058Z,95.15
2019-01-31T06:30:04.034Z,95.25
2019-01-31T06:31:03.977Z,94.38
2019-01-31T06:32:03.924Z,94.96
2019-01-31T06:33:03.878Z,94.86
2019-01-31T06:34:03.823Z,94.57
2019-01-31T06:35:03.797Z,94.28
2019-01-31T06:36:03.768Z,94.38
2019-01-31T06:37:03.707Z,94.57
2019-01-31T06:38:03.641Z,94.38
2019-01-31T06:39:03.596Z,94.43
2019-01-31T06:40:03.572Z,94.18
2019-01-31T06:41:03.506Z,94.38
2019-01-31T06:42:03.473Z,94.38
2019-01-31T06:43:03.417Z,94.76
2019-01-31T06:44:03.379Z,94.76
2019-01-31T06:45:03.346Z,94.48
2019-01-31T06:46:03.305Z,95.25
2019-01-31T06:47:03.268Z,95.34
2019-01-31T06:48:05.114Z,95.15
2019-01-31T06:49:03.145Z,95.34
2019-01-31T06:50:03.113Z,95.15
2019-01-31T06:51:03.056Z,95.25
2019-01-31T06:52:03.011Z,95.54
2019-01-31T06:53:02.966Z,96.02
2019-01-31T06:54:02.932Z,95.93
2019-01-31T06:55:02.891Z,96.07
2019-01-31T06:56:02.843Z,96.02
2019-01-31T06:57:02.817Z,96.02
2019-01-31T06:58:02.773Z,95.93
2019-01-31T06:59:02.696Z,96.17
2019-01-31T07:00:02.686Z,95.93
2019-01-31T07:01:02.638Z,96.12
2019-01-31T07:02:02.580Z,95.93
2019-01-31T07:03:02.527Z,96.12
2019-01-31T07:04:02.490Z,95.88
2019-01-31T07:05:02.457Z,96.36
2019-01-31T07:06:02.381Z,96.41
2019-01-31T07:07:02.367Z,96.75
2019-01-31T07:08:04.707Z,96.46
2019-01-31T07:09:02.261Z,96.75
2019-01-31T07:10:02.211Z,96.65
2019-01-31T07:11:02.166Z,96.65
2019-01-31T07:12:02.130Z,95.98
2019-01-31T07:13:02.076Z,95.68
2019-01-31T07:14:02.051Z,96.17
2019-01-31T07:15:01.987Z,96.26
2019-01-31T07:16:01.953Z,96.12
2019-01-31T07:17:01.896Z,95.83
2019-01-31T07:18:01.860Z,95.49
2019-01-31T07:19:01.884Z,96.02
2019-01-31T07:20:01.769Z,95.59
2019-01-31T07:21:01.715Z,95.68
2019-01-31T07:22:01.670Z,95.98
2019-01-31T07:23:01.625Z,95.88
2019-01-31T07:24:01.580Z,95.44
2019-01-31T07:25:01.526Z,95.44
2019-01-31T07:26:01.510Z,95.49
2019-01-31T07:27:01.465Z,95.98
2019-01-31T07:28:01.411Z,95.98
2019-01-31T07:29:01.357Z,96.26
2019-01-31T07:30:01.310Z,96.75
2019-01-31T07:31:01.275Z,97.04
2019-01-31T07:32:03.624Z,97.33
2019-01-31T07:33:01.194Z,97.23
2019-01-31T07:34:01.118Z,97.42
2019-01-31T07:35:01.074Z,98.10
2019-01-31T07:36:01.061Z,97.42
2019-01-31T07:37:00.984Z,98.20
2019-01-31T07:38:00.936Z,98.30
2019-01-31T07:39:00.905Z,97.81
2019-01-31T07:40:00.858Z,97.23
2019-01-31T07:41:00.833Z,97.42
2019-01-31T07:42:00.777Z,97.14
2019-01-31T07:43:00.746Z,96.94
2019-01-31T07:44:00.687Z,96.94
2019-01-31T07:45:00.632Z,96.46
2019-01-31T07:46:00.577Z,95.68
2019-01-31T07:47:00.542Z,95.40
2019-01-31T07:48:00.485Z,95.40
2019-01-31T07:49:00.440Z,95.73
2019-01-31T07:50:00.403Z,95.54
2019-01-31T07:51:00.361Z,95.20
2019-01-31T07:52:00.321Z,95.78
2019-01-31T07:53:00.260Z,95.59
2019-01-31T07:54:00.234Z,95.15
2019-01-31T07:55:02.050Z,95.64
2019-01-31T07:56:00.135Z,95.78
2019-01-31T07:57:00.080Z,95.88
2019-01-31T07:58:00.033Z,96.17
2019-01-31T07:59:00.020Z,96.65
2019-01-31T07:59:59.965Z,96.75
2019-01-31T08:00:59.909Z,96.94
2019-01-31T08:01:59.885Z,96.46
2019-01-31T08:02:59.814Z,96.84
2019-01-31T08:04:02.604Z,96.84
2019-01-31T08:04:59.739Z,96.75
2019-01-31T08:05:59.693Z,96.46
2019-01-31T08:06:59.627Z,96.75
2019-01-31T08:07:59.595Z,97.23
2019-01-31T08:08:59.549Z,97.23
2019-01-31T08:09:59.523Z,97.42
2019-01-31T08:10:59.467Z,98.15
2019-01-31T08:11:59.413Z,98.73
2019-01-31T08:12:59.388Z,99.69
2019-01-31T08:13:59.322Z,99.94
2019-01-31T08:14:59.298Z,99.99
2019-01-31T08:15:59.242Z,99.99
2019-01-31T08:16:59.176Z,99.99
2019-01-31T08:17:59.133Z,99.99
2019-01-31T08:18:59.097Z,99.99
2019-01-31T08:19:59.060Z,99.99
2019-01-31T08:20:59.026Z,99.99
2019-01-31T08:21:58.949Z,99.99
2019-01-31T08:23:00.296Z,99.99
2019-01-31T08:23:58.858Z,99.99
2019-01-31T08:24:58.812Z,99.99
2019-01-31T08:25:58.780Z,99.99
2019-01-31T08:26:58.733Z,99.99
2019-01-31T08:27:58.690Z,99.99
2019-01-31T08:28:58.645Z,99.99
2019-01-31T08:29:58.607Z,99.99
2019-01-31T08:30:58.553Z,99.99
2019-01-31T08:31:58.516Z,99.99
2019-01-31T08:32:58.450Z,99.99
2019-01-31T08:33:58.437Z,99.99
2019-01-31T08:34:58.400Z,99.99
2019-01-31T08:35:58.339Z,99.99
2019-01-31T08:36:58.301Z,99.99
2019-01-31T08:37:58.261Z,99.99
2019-01-31T08:38:58.180Z,99.99
2019-01-31T08:39:58.133Z,99.99
2019-01-31T08:40:58.111Z,99.99
2019-01-31T08:42:03.749Z,99.99
2019-01-31T08:42:58.030Z,99.99
2019-01-31T08:43:57.953Z,99.99
2019-01-31T08:44:57.920Z,99.99
2019-01-31T08:45:57.883Z,99.99
2019-01-31T08:46:57.850Z,99.99
2019-01-31T08:47:57.806Z,99.99
2019-01-31T08:48:57.760Z,99.99
2019-01-31T08:49:57.702Z,99.99
2019-01-31T08:50:57.657Z,99.99
2019-01-31T08:51:57.593Z,99.99
2019-01-31T08:52:57.559Z,99.99
2019-01-31T08:53:57.536Z,99.99
2019-01-31T08:54:57.480Z,99.99
2019-01-31T08:55:57.485Z,99.99
2019-01-31T08:56:57.386Z,99.99
2019-01-31T08:57:57.356Z,99.99
2019-01-31T08:58:57.279Z,99.99
2019-01-31T08:59:57.230Z,99.99
2019-01-31T09:00:57.233Z,99.99
2019-01-31T09:01:57.164Z,99.99
2019-01-31T09:02:57.103Z,99.99
2019-01-31T09:03:57.100Z,99.99
2019-01-31T09:04:57.037Z,99.99
2019-01-31T09:05:56.960Z,99.99
2019-01-31T09:06:56.947Z,99.99
2019-01-31T09:07:56.882Z,99.99
2019-01-31T09:08:56.831Z,99.99
2019-01-31T09:09:56.780Z,99.99
2019-01-31T09:10:56.755Z,99.99
2019-01-31T09:11:56.702Z,99.99
2019-01-31T09:12:56.657Z,99.99
2019-01-31T09:13:56.632Z,99.99
2019-01-31T09:14:56.588Z,99.99
2019-01-31T09:15:56.543Z,99.99
2019-01-31T09:16:56.465Z,99.99
2019-01-31T09:17:56.443Z,99.36
2019-01-31T09:18:56.396Z,98.25
2019-01-31T09:19:56.363Z,96.51
2019-01-31T09:20:56.306Z,96.99
2019-01-31T09:21:56.274Z,95.44
2019-01-31T09:22:56.198Z,94.71
2019-01-31T09:23:56.167Z,93.26
2019-01-31T09:24:56.114Z,92.54
2019-01-31T09:25:56.077Z,90.84
2019-01-31T09:26:56.033Z,89.39
2019-01-31T09:27:55.996Z,88.32
2019-01-31T09:28:55.933Z,87.49
2019-01-31T09:29:55.922Z,87.78
2019-01-31T09:30:55.877Z,86.91
2019-01-31T09:31:55.815Z,86.91
2019-01-31T09:32:55.779Z,86.23
2019-01-31T09:33:55.757Z,85.02
2019-01-31T09:34:55.705Z,83.23
2019-01-31T09:35:55.652Z,83.37
2019-01-31T09:36:55.620Z,81.37
2019-01-31T09:37:55.566Z,82.53
2019-01-31T09:38:55.536Z,82.15
2019-01-31T09:39:55.474Z,82.05
2019-01-31T09:40:55.453Z,83.12
2019-01-31T09:41:55.383Z,83.60
2019-01-31T09:42:55.370Z,83.31
2019-01-31T09:43:55.318Z,83.31
2019-01-31T09:44:55.271Z,83.22
2019-01-31T09:45:55.239Z,83.40
2019-01-31T09:46:55.207Z,83.40
2019-01-31T09:47:55.141Z,82.57
2019-01-31T09:48:55.108Z,81.06
2019-01-31T09:49:55.075Z,79.32
2019-01-31T09:50:55.036Z,78.73
2019-01-31T09:51:54.976Z,77.84
2019-01-31T09:52:54.938Z,76.38
2019-01-31T09:53:54.918Z,75.89
2019-01-31T09:54:54.860Z,74.18
2019-01-31T09:55:54.830Z,74.28
2019-01-31T09:56:54.789Z,74.02
2019-01-31T09:57:54.756Z,71.98
2019-01-31T09:58:54.705Z,69.94
2019-01-31T09:59:54.681Z,70.72
2019-01-31T10:00:54.650Z,70.52
2019-01-31T10:01:54.594Z,70.23
2019-01-31T10:02:54.576Z,69.78
2019-01-31T10:03:54.551Z,68.64
2019-01-31T10:04:54.504Z,67.38
2019-01-31T10:05:54.479Z,67.41
2019-01-31T10:06:54.451Z,67.77
2019-01-31T10:07:54.406Z,67.60
2019-01-31T10:08:54.360Z,67.12
2019-01-31T10:09:54.335Z,68.38
2019-01-31T10:10:54.345Z,67.35
2019-01-31T10:11:54.287Z,66.02
2019-01-31T10:12:54.216Z,65.43
2019-01-31T10:13:54.205Z,66.11
2019-01-31T10:14:54.150Z,65.85
2019-01-31T10:15:54.282Z,65.56
2019-01-31T10:16:54.087Z,64.90
2019-01-31T10:17:54.106Z,65.07
2019-01-31T10:18:54.064Z,64.42
2019-01-31T10:19:54.052Z,64.90
2019-01-31T10:20:53.959Z,65.00
2019-01-31T10:21:55.526Z,64.45
2019-01-31T10:22:53.892Z,64.06
2019-01-31T10:23:53.920Z,63.28
2019-01-31T10:24:54.554Z,63.93
2019-01-31T10:25:53.816Z,63.57
2019-01-31T10:26:53.748Z,63.28
2019-01-31T10:27:53.709Z,63.38
2019-01-31T10:28:53.696Z,62.13
2019-01-31T10:29:53.651Z,62.23
2019-01-31T10:30:53.617Z,62.13
2019-01-31T10:31:53.593Z,61.19
2019-01-31T10:32:53.547Z,60.50
2019-01-31T10:33:53.535Z,60.34
2019-01-31T10:34:53.506Z,59.66
2019-01-31T10:35:53.454Z,59.56
2019-01-31T10:36:53.430Z,58.68
2019-01-31T10:37:53.393Z,58.28
2019-01-31T10:38:54.744Z,57.60
2019-01-31T10:39:53.332Z,56.13
2019-01-31T10:40:53.298Z,56.36
2019-01-31T10:41:53.286Z,57.43
2019-01-31T10:42:53.303Z,56.26
2019-01-31T10:43:53.228Z,56.16
2019-01-31T10:44:53.163Z,57.50
2019-01-31T10:45:53.133Z,58.26
2019-01-31T10:46:53.134Z,58.75
2019-01-31T10:47:53.086Z,59.14
2019-01-31T10:48:53.055Z,60.11
2019-01-31T10:49:53.033Z,59.92
2019-01-31T10:50:53.003Z,59.50
2019-01-31T10:51:52.955Z,60.08
2019-01-31T10:52:52.946Z,59.99
2019-01-31T10:53:52.902Z,61.43
2019-01-31T10:54:52.893Z,61.69
2019-01-31T10:55:52.849Z,63.15
2019-01-31T10:56:52.817Z,62.85
2019-01-31T10:57:52.816Z,62.76
2019-01-31T10:58:52.743Z,63.15
2019-01-31T10:59:52.698Z,63.51
2019-01-31T11:00:52.675Z,61.17
2019-01-31T11:01:52.663Z,59.31
2019-01-31T11:02:52.633Z,59.90
2019-01-31T11:03:52.580Z,60.68
2019-01-31T11:04:52.545Z,59.83
2019-01-31T11:05:52.501Z,60.03
2019-01-31T11:06:52.488Z,59.34
2019-01-31T11:07:52.415Z,60.61
2019-01-31T11:08:52.394Z,61.40
2019-01-31T11:09:52.353Z,61.69
2019-01-31T11:10:52.305Z,61.20
2019-01-31T11:11:52.269Z,60.52
2019-01-31T11:13:00.243Z,59.54
2019-01-31T11:13:52.225Z,60.22
2019-01-31T11:14:52.201Z,60.00
2019-01-31T11:15:52.122Z,59.64
2019-01-31T11:16:52.090Z,58.95
2019-01-31T11:17:52.077Z,58.07
2019-01-31T11:18:52.033Z,57.88
2019-01-31T11:19:51.977Z,57.59
2019-01-31T11:20:51.939Z,58.17
2019-01-31T11:21:52.023Z,58.07
2019-01-31T11:22:51.862Z,58.14
2019-01-31T11:23:51.826Z,58.83
2019-01-31T11:24:51.767Z,58.95
2019-01-31T11:25:51.742Z,57.88
2019-01-31T11:26:51.694Z,56.54
2019-01-31T11:27:51.670Z,56.61
2019-01-31T11:28:51.631Z,56.15
2019-01-31T11:29:51.569Z,56.02
2019-01-31T11:30:51.550Z,56.51
2019-01-31T11:31:51.522Z,56.32
2019-01-31T11:32:51.465Z,56.02
2019-01-31T11:33:51.411Z,55.44
2019-01-31T11:34:51.403Z,56.12
2019-01-31T11:35:51.335Z,56.58
2019-01-31T11:36:51.325Z,56.38
2019-01-31T11:37:51.284Z,55.41
2019-01-31T11:38:51.231Z,54.56
2019-01-31T11:39:51.192Z,53.97
2019-01-31T11:40:51.142Z,54.27
2019-01-31T11:41:51.103Z,55.83
2019-01-31T11:42:51.084Z,55.93
2019-01-31T11:43:51.047Z,56.22
2019-01-31T11:44:50.976Z,56.61
2019-01-31T11:45:50.946Z,55.83
2019-01-31T11:46:50.906Z,54.88
2019-01-31T11:47:50.871Z,54.98
2019-01-31T11:48:50.822Z,53.83
2019-01-31T11:49:50.792Z,53.25
2019-01-31T11:50:50.761Z,51.61
2019-01-31T11:51:50.726Z,50.12
2019-01-31T11:52:50.688Z,50.81
2019-01-31T11:53:50.633Z,50.29
2019-01-31T11:54:50.569Z,52.64
2019-01-31T11:55:50.541Z,53.13
2019-01-31T11:56:50.489Z,52.34
2019-01-31T11:57:50.461Z,51.56
2019-01-31T11:58:50.409Z,50.88
2019-01-31T11:59:50.399Z,50.90
2019-01-31T12:00:52.999Z,51.88
2019-01-31T12:01:50.323Z,51.98
2019-01-31T12:02:55.095Z,50.22
2019-01-31T12:03:50.336Z,49.75
2019-01-31T12:04:50.186Z,49.46
2019-01-31T12:05:50.136Z,48.38
2019-01-31T12:06:50.106Z,48.68
2019-01-31T12:07:50.081Z,49.16
2019-01-31T12:08:50.011Z,47.99
2019-01-31T12:09:49.987Z,47.41
2019-01-31T12:10:49.942Z,48.19
2019-01-31T12:11:49.906Z,47.60
2019-01-31T12:12:49.848Z,47.04
2019-01-31T12:13:49.827Z,47.24
2019-01-31T12:14:49.788Z,48.11
2019-01-31T12:15:49.757Z,49.19
2019-01-31T12:16:49.717Z,49.85
2019-01-31T12:17:49.671Z,49.97
2019-01-31T12:18:49.604Z,47.63
2019-01-31T12:19:49.694Z,46.72
2019-01-31T12:20:49.544Z,44.18
2019-01-31T12:21:49.485Z,44.57
2019-01-31T12:22:49.467Z,45.76
2019-01-31T12:23:49.426Z,45.57
2019-01-31T12:24:49.377Z,43.81
2019-01-31T12:25:49.326Z,41.36
2019-01-31T12:26:49.312Z,42.42
2019-01-31T12:27:49.275Z,43.49
2019-01-31T12:28:51.130Z,43.42
2019-01-31T12:29:49.175Z,43.63
2019-01-31T12:30:49.150Z,42.66
2019-01-31T12:31:49.097Z,41.78
2019-01-31T12:32:49.066Z,42.36
2019-01-31T12:33:49.033Z,43.27
2019-01-31T12:34:48.974Z,43.37
2019-01-31T12:35:48.933Z,42.31
2019-01-31T12:36:48.903Z,42.82
2019-01-31T12:37:48.842Z,41.35
2019-01-31T12:38:48.844Z,40.58
2019-01-31T12:39:48.767Z,40.09
2019-01-31T12:40:48.753Z,40.51
2019-01-31T12:41:48.692Z,40.21
2019-01-31T12:42:48.673Z,40.61
2019-01-31T12:43:48.642Z,40.51
2019-01-31T12:44:48.587Z,40.58
2019-01-31T12:45:48.537Z,41.45
2019-01-31T12:46:48.495Z,41.42
2019-01-31T12:47:48.466Z,41.92
2019-01-31T12:48:48.416Z,41.84
2019-01-31T12:49:48.396Z,41.08
2019-01-31T12:50:48.347Z,40.68
2019-01-31T12:51:48.314Z,40.39